Terminal Aerodrome Forecast
Issued by NWS

Home | Current Version | Previous Version | Graphics & Text | Print | Product List | Glossary Off
Versions: 1 2 3 4 5 6 7 8 9 10 11 12 13 14 15 16 17 18 19 20

000
FTUS43 KGRB 230520
TAFAUW
TAF
KAUW 230520Z 2306/2406 28003KT P6SM SKC
     FM231000 VRB03KT 3SM BR SCT250
      TEMPO 2310/2313 1SM BR SCT003
     FM231300 26002KT P6SM SCT250
     FM231600 23007KT P6SM BKN035
     FM232200 21005KT P6SM SCT250=

USA.gov is the U.S. government's official web portal to all federal, state and local government web resources and services.